Time;durP1;ratioP1;P1;durP2;ratioP2;P2;SDS_P1;SDS_P2;PMS_P1;PMS_P2;Temp;Humidity;BMP_temperature;BMP_pressure;BME280_temperature;BME280_humidity;BME280_pressure;Samples;Min_cycle;Max_cycle;Signal;HPM_P1;HPM_P2
2021/10/22 00:02:13;;;;;;;15.77;10.87;;;;;;;16.57;45.15;99499.98;1780826;79;21324;-71
2021/10/22 00:04:40;;;;;;;14.17;10.13;;;;;;;16.56;45.20;99505.14;1781518;79;21246;-71
2021/10/22 00:07:06;;;;;;;14.30;10.33;;;;;;;16.52;45.28;99508.26;1801026;79;21337;-70
2021/10/22 00:09:33;;;;;;;14.27;9.53;;;;;;;16.53;45.25;99506.35;1804465;79;21748;-71
2021/10/22 00:12:01;;;;;;;14.03;10.70;;;;;;;16.53;45.29;99509.83;1803719;79;21650;-71
2021/10/22 00:14:28;;;;;;;16.63;10.87;;;;;;;16.50;45.44;99505.64;1797236;79;21367;-70
2021/10/22 00:16:55;;;;;;;16.03;10.47;;;;;;;16.49;45.50;99507.55;1784093;79;21282;-70
2021/10/22 00:19:21;;;;;;;14.47;10.30;;;;;;;16.49;45.62;99503.51;1773825;79;21795;-70
2021/10/22 00:21:48;;;;;;;19.37;12.27;;;;;;;16.49;45.80;99516.98;1787077;78;21360;-69
2021/10/22 00:24:15;;;;;;;14.50;10.47;;;;;;;16.49;45.94;99517.55;1791467;79;21336;-70
2021/10/22 00:26:44;;;;;;;13.47;9.70;;;;;;;16.50;46.03;99511.03;1782515;79;21232;-70
2021/10/22 00:29:11;;;;;;;14.50;9.80;;;;;;;16.51;46.11;99508.00;1782306;79;21224;-70
2021/10/22 00:31:39;;;;;;;15.33;9.77;;;;;;;16.52;46.41;99501.52;1772502;79;21331;-71
2021/10/22 00:34:06;;;;;;;15.00;10.13;;;;;;;16.50;46.63;99502.39;1788658;79;22018;-71
2021/10/22 00:36:32;;;;;;;13.83;10.03;;;;;;;16.51;46.51;99502.61;1797606;79;21218;-71
2021/10/22 00:38:59;;;;;;;17.47;10.93;;;;;;;16.51;46.51;99502.61;1789191;79;21349;-71
2021/10/22 00:41:27;;;;;;;13.77;9.40;;;;;;;16.52;46.82;99501.52;1773082;79;21350;-70
2021/10/22 00:43:56;;;;;;;18.40;10.63;;;;;;;16.51;46.84;99491.83;1777370;79;21292;-70
2021/10/22 00:46:27;;;;;;;16.10;9.30;;;;;;;16.53;46.81;99492.31;1792356;78;21816;-70
2021/10/22 00:48:52;;;;;;;11.67;9.20;;;;;;;16.53;46.80;99477.48;1786719;79;21213;-70
2021/10/22 00:51:18;;;;;;;11.27;8.87;;;;;;;16.51;46.76;99482.95;1786302;79;21487;-70
2021/10/22 00:53:45;;;;;;;15.50;9.37;;;;;;;16.50;46.94;99486.78;1761192;79;21321;-70
2021/10/22 00:56:13;;;;;;;15.93;9.37;;;;;;;16.50;47.07;99488.13;1790156;79;21246;-70
2021/10/22 00:58:41;;;;;;;15.20;9.20;;;;;;;16.48;47.28;99487.08;1800135;79;21277;-71
2021/10/22 01:01:08;;;;;;;14.00;9.07;;;;;;;16.47;47.44;99484.72;1798080;79;21371;-70
2021/10/22 01:03:36;;;;;;;13.37;8.93;;;;;;;16.44;47.57;99494.80;1791623;79;21545;-70
2021/10/22 01:06:03;;;;;;;12.40;7.67;;;;;;;16.43;47.49;99491.31;1783332;78;21987;-70
2021/10/22 01:08:32;;;;;;;13.47;7.93;;;;;;;16.41;47.68;99496.22;1794042;79;21787;-71
2021/10/22 01:10:59;;;;;;;13.60;8.30;;;;;;;16.39;47.97;99487.69;1793523;79;21416;-70
2021/10/22 01:13:26;;;;;;;12.87;8.10;;;;;;;16.40;48.08;99489.27;1800159;79;21970;-70
2021/10/22 01:15:53;;;;;;;11.53;6.87;;;;;;;16.37;48.31;99488.55;1790758;78;22256;-69
2021/10/22 01:18:19;;;;;;;10.33;6.17;;;;;;;16.37;48.26;99491.25;1803539;78;21241;-69
2021/10/22 01:20:46;;;;;;;9.73;6.57;;;;;;;16.38;48.23;99496.30;1794186;78;21252;-69
2021/10/22 01:23:13;;;;;;;9.63;7.10;;;;;;;16.43;48.27;99503.45;1777622;79;21386;-70
2021/10/22 01:25:40;;;;;;;11.27;5.80;;;;;;;16.48;48.19;99506.52;1788962;79;21303;-70
2021/10/22 01:28:08;;;;;;;8.90;6.03;;;;;;;16.56;48.01;99505.14;1802745;79;21363;-70
2021/10/22 01:30:36;;;;;;;7.10;5.20;;;;;;;16.71;47.76;99512.46;1790113;79;21327;-70
2021/10/22 01:33:05;;;;;;;10.67;5.67;;;;;;;16.83;47.39;99515.30;1798505;79;21196;-70
2021/10/22 01:35:32;;;;;;;8.17;5.60;;;;;;;16.97;47.04;99521.26;1798912;79;21831;-71
2021/10/22 01:38:04;;;;;;;6.60;4.63;;;;;;;17.29;46.15;99523.88;1801789;79;21201;-71
2021/10/22 01:40:31;;;;;;;6.87;4.50;;;;;;;17.45;45.90;99532.20;1787056;78;21563;-72
2021/10/22 01:42:58;;;;;;;5.57;3.90;;;;;;;17.45;45.90;99532.20;1796312;79;21341;-70
2021/10/22 01:45:26;;;;;;;9.10;4.57;;;;;;;17.60;45.42;99530.81;1803188;79;21457;-70
2021/10/22 01:47:52;;;;;;;7.60;4.00;;;;;;;17.69;44.97;99530.76;1772494;80;22002;-70
2021/10/22 01:50:19;;;;;;;6.93;4.27;;;;;;;17.79;44.80;99535.23;1799747;79;21256;-70
2021/10/22 01:52:46;;;;;;;7.13;4.70;;;;;;;17.87;44.37;99537.65;1797580;79;21696;-69
2021/10/22 01:55:12;;;;;;;8.00;4.43;;;;;;;17.96;44.39;99540.27;1774507;79;21516;-69
2021/10/22 01:57:40;;;;;;;9.13;4.67;;;;;;;18.00;44.15;99537.94;1786927;79;22255;-71
2021/10/22 02:00:08;;;;;;;6.20;4.33;;;;;;;18.02;43.86;99542.43;1780597;79;21745;-70
2021/10/22 02:02:43;;;;;;;7.20;4.57;;;;;;;18.03;43.42;99536.45;1780885;78;21473;-70
2021/10/22 02:05:11;;;;;;;7.40;4.20;;;;;;;18.11;43.50;99536.17;1778348;78;21762;-70
2021/10/22 02:07:37;;;;;;;9.40;4.40;;;;;;;18.21;43.11;99542.52;1797474;79;22265;-71
2021/10/22 02:10:04;;;;;;;7.50;4.30;;;;;;;18.22;43.21;99543.52;1800623;79;21723;-71
2021/10/22 02:12:32;;;;;;;7.30;4.53;;;;;;;18.22;43.21;99543.52;1787780;79;21713;-70
2021/10/22 02:14:59;;;;;;;7.93;3.97;;;;;;;18.23;43.38;99556.50;1798283;79;22271;-70
2021/10/22 02:17:26;;;;;;;6.87;4.07;;;;;;;18.23;43.38;99556.50;1782439;79;22057;-71
2021/10/22 02:19:52;;;;;;;5.40;3.80;;;;;;;18.24;43.10;99552.09;1794642;78;21715;-71
2021/10/22 02:22:19;;;;;;;6.80;4.30;;;;;;;18.24;43.19;99559.42;1800589;78;22317;-72
2021/10/22 02:24:45;;;;;;;10.37;4.27;;;;;;;18.20;42.64;99557.16;1795986;79;21718;-70
2021/10/22 02:27:13;;;;;;;8.53;4.33;;;;;;;18.24;42.76;99558.06;1799917;79;21619;-71
2021/10/22 02:29:40;;;;;;;5.57;3.70;;;;;;;18.24;42.71;99574.28;1793084;78;21676;-71
2021/10/22 02:32:07;;;;;;;7.53;4.10;;;;;;;18.25;42.59;99569.09;1791227;79;21708;-70
2021/10/22 02:34:36;;;;;;;6.00;3.90;;;;;;;18.25;42.63;99581.27;1779282;79;21686;-70
2021/10/22 02:37:02;;;;;;;5.53;3.73;;;;;;;18.22;42.62;99589.47;1795191;79;21796;-71
2021/10/22 02:39:35;;;;;;;13.43;5.40;;;;;;;18.23;42.53;99591.63;1796152;78;21729;-71
2021/10/22 02:42:03;;;;;;;8.58;3.85;;;;;;;18.23;42.47;99588.94;1804333;79;21703;-70
2021/10/22 02:44:31;;;;;;;7.60;4.10;;;;;;;18.20;42.25;99580.13;1783809;79;21540;-70
2021/10/22 02:46:57;;;;;;;6.00;3.40;;;;;;;18.17;42.12;99593.73;1797513;78;21738;-70
2021/10/22 02:49:26;;;;;;;7.13;3.70;;;;;;;18.20;42.09;99597.13;1778310;79;21840;-71
2021/10/22 02:51:54;;;;;;;8.73;3.60;;;;;;;18.20;41.92;99602.54;1773790;79;21645;-69
2021/10/22 02:54:24;;;;;;;6.60;3.70;;;;;;;18.20;41.92;99602.54;1773585;79;21468;-71
2021/10/22 02:56:53;;;;;;;6.95;3.50;;;;;;;18.16;42.10;99606.22;1785435;79;21726;-71
2021/10/22 02:59:19;;;;;;;7.07;3.40;;;;;;;18.15;42.15;99615.45;1783523;78;21062;-71
2021/10/22 03:01:46;;;;;;;6.30;3.80;;;;;;;18.12;42.09;99611.49;1772987;79;22243;-71
2021/10/22 03:04:13;;;;;;;7.63;4.10;;;;;;;18.09;42.23;99616.77;1787984;78;21791;-71
2021/10/22 03:06:40;;;;;;;5.70;3.60;;;;;;;18.03;42.27;99617.52;1793619;78;22231;-70
2021/10/22 03:09:06;;;;;;;5.57;3.30;;;;;;;18.01;42.42;99632.72;1795138;78;21729;-70
2021/10/22 03:11:36;;;;;;;7.53;3.60;;;;;;;17.97;42.59;99625.05;1793077;78;21643;-70
2021/10/22 03:14:03;;;;;;;7.27;3.77;;;;;;;17.90;42.43;99632.08;1778212;79;21759;-71
2021/10/22 03:16:30;;;;;;;9.80;3.40;;;;;;;17.88;42.59;99623.53;1792739;78;21541;-71
2021/10/22 03:18:58;;;;;;;4.63;3.30;;;;;;;17.88;42.54;99642.44;1788436;79;21662;-71
2021/10/22 03:21:27;;;;;;;7.53;3.40;;;;;;;17.84;42.54;99634.77;1790742;78;21726;-71
2021/10/22 03:23:56;;;;;;;7.00;3.60;;;;;;;17.80;42.54;99642.70;1803960;79;21551;-71
2021/10/22 03:26:24;;;;;;;7.23;4.00;;;;;;;17.80;42.54;99642.70;1782416;79;21946;-70
2021/10/22 03:28:51;;;;;;;9.40;3.37;;;;;;;17.71;42.70;99649.50;1804602;79;21659;-70
2021/10/22 03:31:18;;;;;;;6.97;3.83;;;;;;;17.66;42.69;99653.72;1792113;79;22185;-69
2021/10/22 03:33:45;;;;;;;6.43;3.43;;;;;;;17.66;42.69;99653.72;1779257;79;21634;-70
2021/10/22 03:36:12;;;;;;;5.10;3.10;;;;;;;17.62;42.85;99650.66;1775857;78;22100;-72
2021/10/22 03:38:39;;;;;;;6.43;2.93;;;;;;;17.51;43.27;99657.78;1794938;78;21705;-70
2021/10/22 03:41:06;;;;;;;5.73;3.27;;;;;;;17.51;43.27;99657.78;1777931;79;21495;-69
2021/10/22 03:43:34;;;;;;;5.43;3.63;;;;;;;17.45;43.24;99656.94;1799027;79;21761;-70
2021/10/22 03:46:04;;;;;;;5.37;3.10;;;;;;;17.42;43.30;99658.94;1779341;78;21448;-70
2021/10/22 03:48:31;;;;;;;5.30;3.10;;;;;;;17.41;43.43;99658.71;1773950;79;21450;-70
2021/10/22 03:50:58;;;;;;;5.90;3.40;;;;;;;17.27;44.02;99671.05;1783566;79;22023;-70
2021/10/22 03:53:24;;;;;;;6.13;3.40;;;;;;;17.19;43.88;99671.31;1776112;78;22114;-71
2021/10/22 03:55:51;;;;;;;5.47;3.10;;;;;;;17.19;43.88;99671.31;1798245;78;21529;-71
2021/10/22 03:58:18;;;;;;;5.73;3.20;;;;;;;17.09;43.96;99683.25;1801285;79;21432;-70
2021/10/22 04:00:46;;;;;;;7.93;3.73;;;;;;;17.03;43.74;99679.70;1789923;79;21422;-71
2021/10/22 04:03:14;;;;;;;4.90;3.20;;;;;;;17.03;43.74;99679.70;1801150;78;21420;-71
2021/10/22 04:05:44;;;;;;;5.57;3.13;;;;;;;16.95;44.08;99688.05;1795713;78;21898;-71
2021/10/22 04:08:11;;;;;;;5.93;3.37;;;;;;;16.95;44.08;99688.05;1780258;79;22006;-72
2021/10/22 04:10:41;;;;;;;7.37;3.73;;;;;;;16.91;44.14;99691.70;1783365;79;21285;-71
2021/10/22 04:13:11;;;;;;;7.00;3.17;;;;;;;16.86;44.23;99691.31;1799548;79;21999;-70
2021/10/22 04:15:40;;;;;;;7.55;3.58;;;;;;;16.82;44.39;99694.42;1799388;79;21414;-71
2021/10/22 04:18:07;;;;;;;5.07;3.30;;;;;;;16.81;44.46;99699.56;1786610;79;21080;-69
2021/10/22 04:20:35;;;;;;;6.50;3.43;;;;;;;16.79;44.64;99705.84;1779866;79;21874;-71
2021/10/22 04:23:01;;;;;;;8.57;4.20;;;;;;;16.74;44.78;99700.57;1786507;78;21305;-70
2021/10/22 04:25:28;;;;;;;6.43;3.40;;;;;;;16.64;45.36;99711.91;1777025;79;21894;-70
2021/10/22 04:27:55;;;;;;;6.27;3.63;;;;;;;16.64;45.36;99711.91;1800458;79;21364;-71
2021/10/22 04:30:22;;;;;;;5.20;3.40;;;;;;;16.62;45.10;99717.41;1779665;79;21403;-70
2021/10/22 04:32:49;;;;;;;6.17;3.80;;;;;;;16.58;45.20;99715.09;1783564;78;21793;-70
2021/10/22 04:35:16;;;;;;;8.93;4.40;;;;;;;16.51;45.44;99726.34;1783901;79;21259;-70
2021/10/22 04:37:48;;;;;;;7.80;3.57;;;;;;;16.51;45.44;99726.34;1797515;79;21328;-71
2021/10/22 04:40:34;;;;;;;8.18;3.83;;;;;;;16.50;45.28;99719.37;1774933;78;21884;-70
2021/10/22 04:43:07;;;;;;;6.87;3.90;;;;;;;16.48;45.32;99728.88;1774995;79;21039;-70
2021/10/22 04:45:36;;;;;;;6.00;3.50;;;;;;;16.44;45.34;99717.94;1803149;78;21185;-70
2021/10/22 04:48:05;;;;;;;5.97;3.87;;;;;;;16.40;45.38;99723.73;1802274;79;21617;-70
2021/10/22 04:50:32;;;;;;;6.87;3.77;;;;;;;16.38;45.45;99735.38;1799871;78;21282;-69
2021/10/22 04:52:59;;;;;;;5.17;3.30;;;;;;;16.33;45.51;99740.38;1798088;78;21234;-71
2021/10/22 04:55:27;;;;;;;5.43;3.47;;;;;;;16.30;45.60;99749.08;1802619;78;21341;-71
2021/10/22 04:57:54;;;;;;;7.80;3.73;;;;;;;16.28;45.67;99755.89;1795627;78;21790;-69
2021/10/22 05:00:21;;;;;;;5.63;3.80;;;;;;;16.23;45.90;99760.09;1775925;79;21291;-71
2021/10/22 05:02:48;;;;;;;8.83;3.73;;;;;;;16.19;46.04;99758.59;1788101;78;21313;-69
2021/10/22 05:05:16;;;;;;;6.23;4.00;;;;;;;16.17;46.17;99774.26;1785993;78;21821;-71
2021/10/22 05:07:42;;;;;;;8.50;3.70;;;;;;;16.11;46.50;99765.52;1796411;78;21726;-70
2021/10/22 05:10:11;;;;;;;7.03;4.00;;;;;;;16.10;46.65;99776.62;1794317;78;21188;-71
2021/10/22 05:12:38;;;;;;;9.30;4.50;;;;;;;16.09;46.83;99781.22;1789739;78;21176;-71
2021/10/22 05:15:07;;;;;;;8.23;3.80;;;;;;;16.11;46.94;99787.07;1790702;78;21913;-72
2021/10/22 05:17:33;;;;;;;5.10;3.60;;;;;;;16.11;47.05;99790.32;1792904;79;21736;-72
2021/10/22 05:20:00;;;;;;;8.47;4.13;;;;;;;16.12;47.09;99796.77;1781521;79;21355;-72
2021/10/22 05:22:26;;;;;;;7.83;4.20;;;;;;;16.14;47.03;99797.22;1777576;79;21689;-72
2021/10/22 05:24:53;;;;;;;7.37;3.63;;;;;;;16.14;47.00;99793.74;1782886;79;21185;-71
2021/10/22 05:27:20;;;;;;;8.87;4.10;;;;;;;16.14;46.92;99796.44;1801624;78;21438;-72
2021/10/22 05:29:48;;;;;;;6.30;3.83;;;;;;;16.13;46.79;99799.69;1797532;78;21303;-71
2021/10/22 05:32:15;;;;;;;9.30;4.03;;;;;;;16.15;46.66;99803.40;1802161;78;21275;-71
2021/10/22 05:34:41;;;;;;;5.93;3.20;;;;;;;16.15;46.52;99798.80;1798500;78;21244;-71
2021/10/22 05:37:07;;;;;;;9.10;3.90;;;;;;;16.18;46.51;99803.56;1799550;78;21140;-71
2021/10/22 05:39:35;;;;;;;5.63;3.50;;;;;;;16.18;46.50;99810.30;1808776;78;21377;-69
2021/10/22 05:42:02;;;;;;;6.67;3.90;;;;;;;16.21;46.45;99817.53;1803098;78;21224;-71
2021/10/22 05:44:28;;;;;;;6.30;3.40;;;;;;;16.22;46.41;99827.20;1799805;78;21258;-72
2021/10/22 05:46:55;;;;;;;6.87;3.60;;;;;;;16.26;46.33;99831.66;1791578;78;21279;-72
2021/10/22 05:49:23;;;;;;;8.13;3.83;;;;;;;16.27;46.27;99835.15;1786582;78;21283;-73
2021/10/22 05:51:50;;;;;;;7.63;4.30;;;;;;;16.29;46.31;99839.13;1785908;78;21335;-72
2021/10/22 05:54:17;;;;;;;5.10;3.57;;;;;;;16.32;46.15;99845.77;1788563;79;21772;-72
2021/10/22 05:56:44;;;;;;;10.77;4.07;;;;;;;16.34;46.14;99848.95;1781333;79;21395;-71
2021/10/22 05:59:11;;;;;;;6.77;3.40;;;;;;;16.36;46.07;99848.10;1781146;79;21232;-71
2021/10/22 06:01:37;;;;;;;8.77;3.23;;;;;;;16.39;45.79;99858.27;1790073;78;21840;-72
2021/10/22 06:04:05;;;;;;;6.17;3.13;;;;;;;16.41;45.59;99853.34;1788284;78;21172;-71
2021/10/22 06:06:32;;;;;;;8.83;3.60;;;;;;;16.44;45.18;99853.27;1801714;79;21393;-72
2021/10/22 06:08:59;;;;;;;7.00;3.03;;;;;;;16.48;44.98;99858.27;1792711;78;21809;-72
2021/10/22 06:11:26;;;;;;;6.90;3.00;;;;;;;16.55;44.63;99851.86;1773434;78;22555;-73
2021/10/22 06:13:53;;;;;;;6.30;2.90;;;;;;;16.61;44.54;99852.74;1791350;79;21665;-73
2021/10/22 06:16:22;;;;;;;6.73;2.87;;;;;;;16.64;43.97;99853.47;1803434;79;21420;-73
2021/10/22 06:18:52;;;;;;;6.63;3.07;;;;;;;16.68;43.92;99851.49;1773184;79;21328;-72
2021/10/22 06:21:27;;;;;;;7.10;2.70;;;;;;;16.67;43.67;99852.61;1782538;78;21859;-73
2021/10/22 06:23:54;;;;;;;6.50;3.00;;;;;;;16.70;43.77;99862.20;1811871;78;22025;-73
2021/10/22 06:26:26;;;;;;;6.47;3.70;;;;;;;16.70;43.91;99854.67;1801029;78;21266;-73
2021/10/22 06:28:54;;;;;;;5.43;2.90;;;;;;;16.70;43.79;99857.38;1799546;78;21389;-73
2021/10/22 06:31:22;;;;;;;6.30;3.00;;;;;;;16.70;44.00;99858.16;1804776;78;21304;-73
2021/10/22 06:33:51;;;;;;;5.73;2.90;;;;;;;16.70;44.00;99858.16;1805596;78;21486;-73
2021/10/22 06:36:17;;;;;;;9.37;3.13;;;;;;;16.73;44.07;99860.80;1809588;78;21591;-72
2021/10/22 06:38:45;;;;;;;7.37;3.07;;;;;;;16.77;44.21;99853.69;1803281;78;21402;-73
2021/10/22 06:41:12;;;;;;;6.33;3.43;;;;;;;16.84;44.36;99862.09;1803670;78;21768;-72
2021/10/22 06:43:41;;;;;;;7.73;3.40;;;;;;;16.90;44.41;99861.40;1798686;78;21496;-73
2021/10/22 06:46:08;;;;;;;6.90;4.53;;;;;;;16.96;44.43;99862.28;1793005;78;21289;-73
2021/10/22 06:48:37;;;;;;;8.17;3.73;;;;;;;16.96;44.43;99862.28;1805012;78;21320;-72
2021/10/22 06:51:05;;;;;;;8.40;3.80;;;;;;;16.98;44.26;99865.99;1803056;78;21596;-73
2021/10/22 06:53:36;;;;;;;8.00;3.87;;;;;;;16.90;44.18;99860.84;1807008;78;21394;-72
2021/10/22 06:56:06;;;;;;;10.27;3.47;;;;;;;16.87;44.45;99860.91;1805883;78;21838;-71
2021/10/22 06:58:33;;;;;;;8.73;4.03;;;;;;;16.86;44.39;99864.72;1801023;78;21337;-72
2021/10/22 07:01:00;;;;;;;9.30;3.83;;;;;;;16.88;44.49;99860.38;1806535;78;21458;-73
2021/10/22 07:03:28;;;;;;;10.10;3.90;;;;;;;17.00;44.08;99863.78;1810426;78;21308;-73
2021/10/22 07:08:25;;;;;;;6.87;3.63;;;;;;;17.02;43.50;99872.36;1798475;78;21390;-72
2021/10/22 07:10:52;;;;;;;7.07;3.37;;;;;;;17.08;43.39;99872.45;1808910;78;21877;-74
2021/10/22 07:13:20;;;;;;;6.67;3.27;;;;;;;17.13;42.86;99870.93;1797692;78;21535;-73
2021/10/22 07:15:47;;;;;;;5.93;2.90;;;;;;;17.13;42.86;99870.93;1809469;78;21357;-73
2021/10/22 07:18:15;;;;;;;6.37;2.93;;;;;;;17.17;43.05;99869.73;1806934;78;21836;-72
2021/10/22 07:20:42;;;;;;;7.80;3.10;;;;;;;17.26;43.17;99873.23;1815413;78;21258;-72
2021/10/22 07:23:11;;;;;;;6.87;3.50;;;;;;;17.34;42.89;99877.29;1805153;78;21943;-73
2021/10/22 07:25:41;;;;;;;7.83;3.73;;;;;;;17.51;42.87;99872.98;1796896;78;21494;-74
2021/10/22 07:28:14;;;;;;;7.07;3.83;;;;;;;17.61;42.81;99874.56;1799639;78;21397;-75
2021/10/22 07:30:44;;;;;;;8.63;3.90;;;;;;;17.61;42.81;99874.56;1809021;78;21512;-72
2021/10/22 07:33:14;;;;;;;7.27;3.50;;;;;;;17.70;43.12;99881.54;1807451;78;21684;-74
2021/10/22 07:35:45;;;;;;;5.80;3.47;;;;;;;17.80;42.97;99873.66;1803417;78;22037;-73
2021/10/22 07:38:11;;;;;;;10.03;4.37;;;;;;;17.89;42.66;99875.78;1775217;78;22078;-72
2021/10/22 07:40:46;;;;;;;7.70;4.30;;;;;;;17.96;42.53;99876.08;1812137;78;21586;-73
2021/10/22 07:43:16;;;;;;;9.33;4.50;;;;;;;18.03;41.96;99869.64;1814773;78;21573;-75
2021/10/22 07:45:43;;;;;;;8.80;3.70;;;;;;;18.12;41.35;99884.45;1783384;78;22106;-72
2021/10/22 07:48:11;;;;;;;7.40;3.87;;;;;;;18.20;40.30;99896.37;1814843;78;21695;-71
2021/10/22 07:50:38;;;;;;;6.27;3.43;;;;;;;18.20;39.39;99890.40;1792971;78;22153;-72
2021/10/22 07:53:05;;;;;;;8.70;3.20;;;;;;;18.31;39.51;99898.94;1796849;78;21729;-72
2021/10/22 07:55:35;;;;;;;4.30;2.50;;;;;;;18.36;37.88;99885.25;1801993;78;22265;-72
2021/10/22 07:58:04;;;;;;;7.83;2.40;;;;;;;18.41;35.98;99902.63;1789119;78;21621;-70
2021/10/22 08:00:31;;;;;;;6.03;1.93;;;;;;;18.46;35.27;99892.98;1776202;79;21716;-73
2021/10/22 08:02:58;;;;;;;7.53;2.10;;;;;;;18.50;34.22;99896.63;1786440;79;22974;-73
2021/10/22 08:05:24;;;;;;;6.10;2.53;;;;;;;18.60;34.52;99889.27;1779333;79;21808;-73
2021/10/22 08:07:52;;;;;;;7.33;2.20;;;;;;;18.62;34.71;99893.77;1789606;78;22287;-72
2021/10/22 08:10:19;;;;;;;9.23;2.97;;;;;;;18.67;35.01;99896.30;1800140;79;21820;-72
2021/10/22 08:12:46;;;;;;;11.73;2.50;;;;;;;18.70;34.06;99896.44;1799646;79;21784;-74
2021/10/22 08:28:39;;;;;;;6.67;1.73;;;;;;;19.20;31.68;99900.27;1800873;79;22688;-72
2021/10/22 08:31:07;;;;;;;5.00;1.60;;;;;;;19.13;31.42;99894.03;1770410;80;21046;-71
2021/10/22 08:33:34;;;;;;;7.50;1.60;;;;;;;19.11;30.66;99918.48;1786428;80;22099;-72
2021/10/22 08:36:00;;;;;;;5.03;1.47;;;;;;;19.08;30.33;99909.66;1811881;78;21056;-72
2021/10/22 08:38:28;;;;;;;5.73;1.37;;;;;;;19.06;30.84;99918.69;1816399;78;21030;-74
2021/10/22 08:40:54;;;;;;;6.20;1.40;;;;;;;19.02;30.39;99916.39;1782840;78;21007;-72
2021/10/22 08:43:23;;;;;;;4.83;1.33;;;;;;;19.01;29.77;99888.53;1797645;78;21058;-73
2021/10/22 08:45:58;;;;;;;4.37;1.47;;;;;;;18.95;30.39;99912.85;1786778;79;21140;-75
2021/10/22 08:48:25;;;;;;;6.20;1.40;;;;;;;18.88;29.91;99917.43;1782373;78;21059;-75
2021/10/22 08:50:52;;;;;;;4.53;1.40;;;;;;;18.88;30.58;99909.87;1792424;79;21768;-74
2021/10/22 08:53:19;;;;;;;7.80;1.57;;;;;;;18.87;30.63;99929.95;1785380;78;21283;-73
2021/10/22 08:55:46;;;;;;;5.10;1.40;;;;;;;18.82;30.46;99905.23;1789075;79;21669;-73
2021/10/22 08:58:13;;;;;;;7.10;1.47;;;;;;;18.82;30.57;99928.23;1789566;78;22010;-74
2021/10/22 09:00:40;;;;;;;6.43;1.40;;;;;;;18.83;30.67;99916.28;1774453;78;21701;-75
2021/10/22 09:03:12;;;;;;;8.63;1.43;;;;;;;18.83;30.80;99918.98;1787947;78;21058;-73
2021/10/22 09:05:59;;;;;;;4.37;1.33;;;;;;;18.88;30.61;99923.41;1792637;78;21631;-73
2021/10/22 09:08:32;;;;;;;7.07;1.93;;;;;;;18.87;30.67;99913.15;1790825;78;21809;-74
2021/10/22 09:11:00;;;;;;;3.77;1.50;;;;;;;18.90;31.22;99917.91;1790343;78;22760;-73
2021/10/22 09:13:33;;;;;;;4.00;1.50;;;;;;;18.95;31.00;99916.91;1791331;78;21735;-72
2021/10/22 09:16:22;;;;;;;6.03;1.75;;;;;;;19.06;31.23;99907.87;1782227;78;21714;-72
2021/10/22 09:18:52;;;;;;;7.60;1.60;;;;;;;19.10;30.98;99924.46;1777102;79;21069;-73
2021/10/22 09:21:30;;;;;;;6.00;1.50;;;;;;;19.15;31.39;99922.11;1758634;79;22238;-73
2021/10/22 09:24:15;;;;;;;4.97;2.13;;;;;;;19.15;31.39;99922.11;1788852;78;21107;-73
2021/10/22 09:26:56;;;;;;;4.00;1.57;;;;;;;19.23;30.76;99916.42;1817812;77;21710;-72
2021/10/22 09:29:27;;;;;;;7.37;1.57;;;;;;;19.24;30.82;99929.61;1814050;77;22259;-74
2021/10/22 09:31:57;;;;;;;4.67;1.57;;;;;;;19.31;31.52;99926.38;1799605;78;21109;-74
2021/10/22 09:34:33;;;;;;;3.90;1.47;;;;;;;19.31;31.52;99926.38;1821674;78;21291;-73
2021/10/22 09:37:07;;;;;;;5.67;1.77;;;;;;;19.33;31.05;99930.34;1809093;78;21035;-73
2021/10/22 09:39:36;;;;;;;5.13;1.70;;;;;;;19.36;31.34;99930.25;1748993;80;21814;-73
2021/10/22 09:42:03;;;;;;;5.70;1.47;;;;;;;19.32;30.84;99923.91;1793193;79;21061;-73
2021/10/22 09:44:41;;;;;;;4.03;1.40;;;;;;;19.31;30.80;99919.60;1739820;78;21049;-73
2021/10/22 09:47:11;;;;;;;4.47;1.53;;;;;;;19.31;30.88;99910.13;1779477;78;21094;-73
2021/10/22 09:49:42;;;;;;;7.10;1.73;;;;;;;19.25;30.57;99932.56;1776901;78;21505;-76
2021/10/22 09:52:27;;;;;;;8.30;2.08;;;;;;;19.21;30.96;99916.73;1758778;79;21100;-74
2021/10/22 09:55:12;;;;;;;4.97;1.90;;;;;;;19.20;31.20;99923.27;1784477;78;21556;-73
2021/10/22 09:57:41;;;;;;;6.77;2.40;;;;;;;19.26;31.44;99938.20;1776229;78;21137;-74
2021/10/22 10:00:16;;;;;;;5.47;2.00;;;;;;;19.33;31.41;99931.70;1785676;78;21066;-75
2021/10/22 10:02:42;;;;;;;5.37;2.00;;;;;;;19.33;30.74;99943.88;1783226;78;21802;-76
2021/10/22 10:05:11;;;;;;;5.47;1.70;;;;;;;19.37;30.73;99942.66;1784228;78;21130;-75
2021/10/22 10:07:45;;;;;;;6.67;1.97;;;;;;;19.43;30.82;99938.06;1781855;79;21695;-73
2021/10/22 10:10:12;;;;;;;5.70;1.57;;;;;;;19.48;30.96;99936.27;1788311;78;21561;-74
2021/10/22 10:12:40;;;;;;;8.43;2.00;;;;;;;19.51;30.90;99933.69;1788642;78;21116;-73
2021/10/22 10:15:11;;;;;;;7.40;1.70;;;;;;;19.48;30.98;99928.14;1785767;78;21519;-73
2021/10/22 10:17:44;;;;;;;4.03;1.60;;;;;;;19.47;30.86;99928.71;1784526;78;21089;-74
2021/10/22 10:20:11;;;;;;;5.87;1.67;;;;;;;19.55;31.26;99929.22;1778978;78;21686;-74
2021/10/22 10:22:42;;;;;;;5.37;1.40;;;;;;;19.67;31.15;99944.73;1757117;79;21603;-74
2021/10/22 10:25:07;;;;;;;4.70;1.60;;;;;;;19.70;30.67;99931.88;1776997;79;21520;-74
2021/10/22 10:27:47;;;;;;;4.93;1.67;;;;;;;19.71;30.98;99936.20;1732482;77;21773;-74
2021/10/22 10:30:15;;;;;;;5.90;1.80;;;;;;;19.74;30.54;99941.48;1799613;79;21012;-73
2021/10/22 10:32:42;;;;;;;7.33;2.03;;;;;;;19.73;30.50;99946.13;1739346;80;21030;-72
2021/10/22 10:35:14;;;;;;;7.20;1.80;;;;;;;19.74;30.57;99960.45;1773422;78;21026;-74
2021/10/22 10:37:42;;;;;;;7.65;1.80;;;;;;;19.73;30.69;99941.27;1778220;80;21117;-72
2021/10/22 10:40:28;;;;;;;7.87;1.87;;;;;;;19.74;30.60;99955.83;1783237;78;21090;-74
2021/10/22 10:43:03;;;;;;;3.93;1.50;;;;;;;19.72;30.60;99945.90;1785727;79;21116;-71
2021/10/22 10:45:37;;;;;;;3.57;1.60;;;;;;;19.68;30.70;99944.42;1791879;78;21050;-72
2021/10/22 10:48:10;;;;;;;5.63;2.10;;;;;;;19.67;30.63;99948.23;1786221;78;21051;-72
2021/10/22 10:50:41;;;;;;;5.97;1.83;;;;;;;19.68;30.34;99955.83;1790491;78;21006;-74
2021/10/22 10:53:15;;;;;;;4.07;1.57;;;;;;;19.67;30.45;99946.09;1791635;78;21106;-72
2021/10/22 10:55:45;;;;;;;;;;;;;;;19.62;30.06;99952.48;1796951;78;21171;-72
2021/10/22 10:58:17;;;;;;;5.07;1.60;;;;;;;19.65;30.13;99942.94;1791741;78;21074;-71
2021/10/22 11:00:56;;;;;;;5.63;1.80;;;;;;;19.67;30.06;99949.59;1787986;78;21571;-72
2021/10/22 11:03:44;;;;;;;5.13;1.50;;;;;;;19.78;30.43;99937.02;1788152;78;21154;-72
2021/10/22 11:06:16;;;;;;;6.53;1.50;;;;;;;19.90;29.45;99935.10;1785288;78;21026;-71
2021/10/22 11:08:45;;;;;;;6.87;1.70;;;;;;;19.98;29.68;99942.15;1766544;78;20999;-70
2021/10/22 11:11:26;;;;;;;6.07;1.60;;;;;;;20.00;29.56;99953.43;1797758;78;21038;-71
2021/10/22 11:13:56;;;;;;;6.07;1.60;;;;;;;19.93;29.16;99940.42;1780818;78;20987;-71
2021/10/22 11:16:30;;;;;;;8.43;2.27;;;;;;;19.90;29.46;99942.45;1781543;78;21078;-72
2021/10/22 11:19:00;;;;;;;3.83;1.40;;;;;;;19.88;29.41;99940.66;1779224;79;21099;-70
2021/10/22 11:21:29;;;;;;;5.33;1.33;;;;;;;19.95;29.52;99946.31;1778285;78;21556;-71
2021/10/22 11:24:01;;;;;;;10.03;1.40;;;;;;;20.02;29.56;99945.77;1778821;79;21022;-71
2021/10/22 11:26:28;;;;;;;10.72;2.00;;;;;;;20.06;29.68;99946.67;1787616;78;21117;-72
2021/10/22 11:29:00;;;;;;;9.73;1.67;;;;;;;20.07;29.68;99946.36;1784509;79;21051;-71
2021/10/22 11:31:41;;;;;;;8.07;1.60;;;;;;;20.07;29.58;99936.05;1794157;78;21152;-71
2021/10/22 11:34:14;;;;;;;6.63;1.80;;;;;;;20.06;29.35;99943.97;1781060;79;21140;-71
2021/10/22 11:36:41;;;;;;;12.13;2.17;;;;;;;20.02;29.84;99955.26;1792554;78;22015;-71
2021/10/22 11:39:22;;;;;;;7.57;1.80;;;;;;;19.97;29.52;99948.67;1724133;81;21070;-73
2021/10/22 11:42:18;;;;;;;5.90;1.60;;;;;;;19.97;29.53;99956.24;1770693;78;21096;-70
2021/10/22 11:44:47;;;;;;;4.90;1.60;;;;;;;19.89;29.44;99950.36;1785871;79;21544;-71
2021/10/22 11:47:15;;;;;;;4.83;1.70;;;;;;;19.82;29.82;99960.39;1794798;78;21457;-72
2021/10/22 11:49:43;;;;;;;8.70;2.10;;;;;;;19.74;29.92;99958.53;1789111;79;21085;-71
2021/10/22 11:52:14;;;;;;;8.00;1.77;;;;;;;19.66;29.82;99950.72;1797780;78;21023;-73
2021/10/22 11:54:50;;;;;;;4.10;1.27;;;;;;;19.68;30.22;99957.97;1780743;78;20995;-71
2021/10/22 11:57:23;;;;;;;7.13;1.60;;;;;;;19.74;30.20;99959.89;1774270;78;21142;-74